Time;durP1;ratioP1;P1;durP2;ratioP2;P2;SDS_P1;SDS_P2;PMS_P1;PMS_P2;Temp;Humidity;BMP_temperature;BMP_pressure;BME280_temperature;BME280_humidity;BME280_pressure;Samples;Min_cycle;Max_cycle;Signal;HPM_P1;HPM_P2
2022/04/28 00:00:50;;;;;;;;;;;;;;;22.73;nan;95119.56;2057775;28;1536;-60
2022/04/28 00:01:51;;;;;;;;;;;;;;;22.72;nan;95112.59;2059864;28;1515;-59
2022/04/28 00:02:53;;;;;;;;;;;;;;;22.73;nan;95115.03;2064685;28;1730;-58
2022/04/28 00:03:55;;;;;;;;;;;;;;;22.73;nan;95116.88;2058332;28;1673;-59
2022/04/28 00:04:56;;;;;;;;;;;;;;;22.73;nan;95116.88;2058419;28;1981;-59
2022/04/28 00:05:58;;;;;;;;;;;;;;;22.72;nan;95120.63;2058372;28;1121;-62
2022/04/28 00:07:00;;;;;;;;;;;;;;;22.73;nan;95109.66;2048670;28;1532;-61
2022/04/28 00:08:02;;;;;;;;;;;;;;;22.71;nan;95116.31;2063787;28;1059;-58
2022/04/28 00:09:04;;;;;;;;;;;;;;;22.72;nan;95123.31;2066330;28;1140;-59
2022/04/28 00:10:06;;;;;;;;;;;;;;;22.72;nan;95118.75;2065121;28;1827;-59
2022/04/28 00:11:10;;;;;;;;;;;;;;;22.73;nan;95117.69;2071021;28;1531;-63
2022/04/28 00:12:12;;;;;;;;;;;;;;;22.73;nan;95114.22;2070171;28;1524;-58
2022/04/28 00:13:14;;;;;;;;;;;;;;;22.72;nan;95116.06;2066343;28;1053;-59
2022/04/28 00:14:16;;;;;;;;;;;;;;;22.72;nan;95118.75;2066521;28;1209;-59
2022/04/28 00:15:18;;;;;;;;;;;;;;;22.70;nan;95115.47;2066288;28;1118;-59
2022/04/28 00:16:20;;;;;;;;;;;;;;;22.72;nan;95117.94;2064004;28;1515;-61
2022/04/28 00:17:21;;;;;;;;;;;;;;;22.72;nan;95120.63;2059474;28;1821;-58
2022/04/28 00:18:23;;;;;;;;;;;;;;;22.72;nan;95117.94;2050341;28;1106;-59
2022/04/28 00:19:24;;;;;;;;;;;;;;;22.72;nan;95118.75;2062051;28;1394;-59
2022/04/28 00:20:26;;;;;;;;;;;;;;;22.71;nan;95122.50;2062664;28;1526;-60
2022/04/28 00:21:28;;;;;;;;;;;;;;;22.70;nan;95120.84;2056813;28;1833;-63
2022/04/28 00:22:30;;;;;;;;;;;;;;;22.72;nan;95121.44;2058107;28;1100;-59
2022/04/28 00:23:31;;;;;;;;;;;;;;;22.73;nan;95114.22;2058161;28;1548;-60
2022/04/28 00:24:33;;;;;;;;;;;;;;;22.73;nan;95124.94;2057398;28;1569;-59
2022/04/28 00:25:35;;;;;;;;;;;;;;;22.73;nan;95124.94;2057825;28;1979;-60
2022/04/28 00:26:36;;;;;;;;;;;;;;;22.72;nan;95120.63;2065637;28;1463;-59
2022/04/28 00:27:38;;;;;;;;;;;;;;;22.72;nan;95123.31;2066837;28;1667;-60
2022/04/28 00:28:39;;;;;;;;;;;;;;;22.73;nan;95122.25;2062085;28;1454;-59
2022/04/28 00:29:41;;;;;;;;;;;;;;;22.70;nan;95125.34;2051324;28;1343;-63
2022/04/28 00:30:43;;;;;;;;;;;;;;;22.73;nan;95128.41;2057033;28;1486;-60
2022/04/28 00:31:47;;;;;;;;;;;;;;;22.73;nan;95120.38;2063847;28;1536;-59
2022/04/28 00:32:49;;;;;;;;;;;;;;;22.72;nan;95123.31;2057904;28;1316;-59
2022/04/28 00:33:51;;;;;;;;;;;;;;;22.74;nan;95122.03;2062827;28;1589;-59
2022/04/28 00:34:52;;;;;;;;;;;;;;;22.76;nan;95124.47;2065164;28;1491;-59
2022/04/28 00:35:54;;;;;;;;;;;;;;;22.75;nan;95125.53;2066118;28;979;-59
2022/04/28 00:36:56;;;;;;;;;;;;;;;22.74;nan;95124.72;2062595;28;1718;-60
2022/04/28 00:37:57;;;;;;;;;;;;;;;22.75;nan;95133.56;2066028;28;1018;-58
2022/04/28 00:38:59;;;;;;;;;;;;;;;22.75;nan;95134.38;2066115;28;979;-59
2022/04/28 00:40:01;;;;;;;;;;;;;;;22.75;nan;95130.88;2066085;28;1034;-57
2022/04/28 00:41:03;;;;;;;;;;;;;;;22.76;nan;95135.19;2056697;28;1484;-59
2022/04/28 00:42:12;;;;;;;;;;;;;;;22.76;nan;95133.34;2064847;28;965;-59
2022/04/28 00:43:20;;;;;;;;;;;;;;;22.75;nan;95136.25;2062664;28;1684;-60
2022/04/28 00:44:22;;;;;;;;;;;;;;;22.77;nan;95134.16;2065608;28;1122;-62
2022/04/28 00:45:23;;;;;;;;;;;;;;;22.77;nan;95136.84;2064677;28;1934;-59
2022/04/28 00:46:25;;;;;;;;;;;;;;;22.79;nan;95142.78;2061068;28;1509;-59
2022/04/28 00:50:38;;;;;;;;;;;;;;;22.77;nan;95142.22;2058245;28;1026;-59
2022/04/28 00:51:34;;;;;;;;;;;;;;;22.80;nan;95136.41;2065764;28;1462;-59
2022/04/28 00:52:36;;;;;;;;;;;;;;;22.81;nan;95130.00;2057553;28;1276;-59
2022/04/28 00:53:46;;;;;;;;;;;;;;;22.80;nan;95136.41;2058962;28;1695;-60
2022/04/28 00:54:49;;;;;;;;;;;;;;;22.79;nan;95134.75;2058015;28;1018;-59
2022/04/28 00:55:50;;;;;;;;;;;;;;;22.79;nan;95140.94;2057804;28;1455;-60
2022/04/28 00:56:52;;;;;;;;;;;;;;;22.80;nan;95147.13;2057836;28;1740;-59
2022/04/28 00:57:54;;;;;;;;;;;;;;;22.81;nan;95151.44;2057980;28;1707;-58
2022/04/28 00:58:58;;;;;;;;;;;;;;;22.81;nan;95150.63;2058137;28;1030;-59
2022/04/28 01:00:00;;;;;;;;;;;;;;;22.80;nan;95149.78;2057596;28;1820;-59
2022/04/28 01:01:04;;;;;;;;;;;;;;;22.79;nan;95154.34;2057808;28;1732;-59
2022/04/28 01:02:06;;;;;;;;;;;;;;;22.80;nan;95147.13;2057926;28;1092;-58
2022/04/28 01:03:08;;;;;;;;;;;;;;;22.81;nan;95147.94;2055121;28;1715;-60
2022/04/28 01:04:10;;;;;;;;;;;;;;;22.81;nan;95142.56;2046740;28;1383;-62
2022/04/28 01:05:12;;;;;;;;;;;;;;;22.81;nan;95143.38;2051646;28;1026;-59
2022/04/28 01:06:14;;;;;;;;;;;;;;;22.80;nan;95147.13;2066562;28;1973;-60
2022/04/28 01:07:15;;;;;;;;;;;;;;;22.82;nan;95145.00;2066439;28;1725;-59
2022/04/28 01:08:17;;;;;;;;;;;;;;;22.82;nan;95144.19;2051620;29;1145;-60
2022/04/28 01:09:19;;;;;;;;;;;;;;;22.83;nan;95152.03;2051427;28;999;-58
2022/04/28 01:10:20;;;;;;;;;;;;;;;22.82;nan;95145.00;2051424;28;1411;-59
2022/04/28 01:11:22;;;;;;;;;;;;;;;22.83;nan;95144.00;2058545;28;1503;-60
2022/04/28 01:12:24;;;;;;;;;;;;;;;22.83;nan;95149.34;2067115;28;1041;-59
2022/04/28 01:13:26;;;;;;;;;;;;;;;22.84;nan;95147.50;2066396;28;986;-58
2022/04/28 01:14:28;;;;;;;;;;;;;;;22.82;nan;95145.00;2060326;28;1979;-60
2022/04/28 01:15:29;;;;;;;;;;;;;;;22.81;nan;95148.75;2054134;28;1094;-62
2022/04/28 01:16:31;;;;;;;;;;;;;;;22.82;nan;95153.06;2059210;28;1729;-59
2022/04/28 01:17:32;;;;;;;;;;;;;;;22.81;nan;95148.75;2058389;28;1511;-58
2022/04/28 01:18:34;;;;;;;;;;;;;;;22.80;nan;95152.47;2059510;28;1097;-59
2022/04/28 01:19:36;;;;;;;;;;;;;;;22.80;nan;95152.47;2059497;28;1471;-59
2022/04/28 01:20:37;;;;;;;;;;;;;;;22.80;nan;95155.16;2058765;28;1553;-59
2022/04/28 01:21:39;;;;;;;;;;;;;;;22.80;nan;95157.84;2074756;28;1043;-59
2022/04/28 01:22:46;;;;;;;;;;;;;;;22.78;nan;95159.91;2074121;28;1064;-59
2022/04/28 01:23:47;;;;;;;;;;;;;;;22.77;nan;95158.28;2067543;28;1102;-59
2022/04/28 01:24:49;;;;;;;;;;;;;;;22.76;nan;95160.16;2066293;28;1124;-59
2022/04/28 01:25:50;;;;;;;;;;;;;;;22.76;nan;95157.47;2062372;28;1930;-59
2022/04/28 01:26:56;;;;;;;;;;;;;;;22.76;nan;95159.31;2062584;28;1236;-59
2022/04/28 01:27:58;;;;;;;;;;;;;;;22.75;nan;95153.13;2067458;28;1021;-58
2022/04/28 01:28:59;;;;;;;;;;;;;;;22.75;nan;95160.34;2067466;28;1092;-58
2022/04/28 01:30:02;;;;;;;;;;;;;;;22.75;nan;95149.63;2061430;28;1681;-58
2022/04/28 01:31:06;;;;;;;;;;;;;;;22.75;nan;95153.13;2062119;28;1476;-58
2022/04/28 01:32:08;;;;;;;;;;;;;;;22.75;nan;95147.78;2067408;28;1026;-58
2022/04/28 01:33:10;;;;;;;;;;;;;;;22.76;nan;95151.25;2067174;28;1774;-60
2022/04/28 01:34:11;;;;;;;;;;;;;;;22.77;nan;95151.06;2059277;28;1662;-58
2022/04/28 01:35:13;;;;;;;;;;;;;;;22.76;nan;95152.13;2058333;28;1704;-59
2022/04/28 01:36:14;;;;;;;;;;;;;;;22.77;nan;95155.59;2058751;28;1031;-58
2022/04/28 01:37:16;;;;;;;;;;;;;;;22.77;nan;95152.94;2056444;28;1517;-59
2022/04/28 01:38:18;;;;;;;;;;;;;;;22.76;nan;95161.97;2061208;28;1607;-58
2022/04/28 01:39:20;;;;;;;;;;;;;;;22.75;nan;95155.81;2065922;28;1501;-59
2022/04/28 01:40:21;;;;;;;;;;;;;;;22.73;nan;95157.88;2063611;28;1680;-58
2022/04/28 01:41:23;;;;;;;;;;;;;;;22.76;nan;95164.66;2062563;28;1569;-59
2022/04/28 01:42:25;;;;;;;;;;;;;;;22.76;nan;95161.97;2067235;28;1078;-57
2022/04/28 01:43:27;;;;;;;;;;;;;;;22.78;nan;95167.94;2066109;28;1105;-59
2022/04/28 01:44:28;;;;;;;;;;;;;;;22.78;nan;95159.91;2066637;28;995;-59
2022/04/28 01:45:30;;;;;;;;;;;;;;;22.76;nan;95159.31;2067210;28;1013;-63
2022/04/28 01:46:32;;;;;;;;;;;;;;;22.75;nan;95158.50;2067170;28;1907;-59
2022/04/28 01:47:33;;;;;;;;;;;;;;;22.75;nan;95160.34;2060042;28;1718;-59
2022/04/28 01:48:35;;;;;;;;;;;;;;;22.76;nan;95156.63;2055482;28;1516;-57
2022/04/28 01:49:37;;;;;;;;;;;;;;;22.76;nan;95161.97;2062472;28;1030;-60
2022/04/28 01:50:38;;;;;;;;;;;;;;;22.76;nan;95161.97;2062441;28;1720;-62
2022/04/28 01:55:41;;;;;;;;;;;;;;;22.75;nan;95166.53;2060496;28;1640;-59
2022/04/28 01:56:42;;;;;;;;;;;;;;;22.76;nan;95156.63;2059005;28;1756;-59
2022/04/28 01:57:44;;;;;;;;;;;;;;;22.75;nan;95161.16;2059785;28;982;-63
2022/04/28 01:58:45;;;;;;;;;;;;;;;22.77;nan;95160.97;2058968;28;1709;-65
2022/04/28 01:59:47;;;;;;;;;;;;;;;22.78;nan;95165.25;2055006;28;1034;-65
2022/04/28 02:00:50;;;;;;;;;;;;;;;22.77;nan;95160.97;2055754;28;1596;-64
2022/04/28 02:01:52;;;;;;;;;;;;;;;22.77;nan;95163.63;2067007;28;1003;-64
2022/04/28 02:02:54;;;;;;;;;;;;;;;22.77;nan;95169.00;2059411;28;1753;-64
2022/04/28 02:03:56;;;;;;;;;;;;;;;22.77;nan;95169.00;2065293;28;1490;-63
2022/04/28 02:05:01;;;;;;;;;;;;;;;22.76;nan;95167.34;2067131;28;1022;-63
2022/04/28 02:06:03;;;;;;;;;;;;;;;22.75;nan;95165.72;2067239;28;1976;-64
2022/04/28 02:07:06;;;;;;;;;;;;;;;22.76;nan;95170.03;2067095;28;1020;-72
2022/04/28 02:08:08;;;;;;;;;;;;;;;22.81;nan;95172.03;2074967;28;1093;-70
2022/04/28 02:09:10;;;;;;;;;;;;;;;22.87;nan;95160.44;2074378;28;1005;-70
2022/04/28 02:10:11;;;;;;;;;;;;;;;22.92;nan;95169.44;2064338;28;1385;-70
2022/04/28 02:11:13;;;;;;;;;;;;;;;22.94;nan;95170.06;2053466;28;1692;-70
2022/04/28 02:12:15;;;;;;;;;;;;;;;22.96;nan;95172.50;2058976;28;1646;-70
2022/04/28 02:13:17;;;;;;;;;;;;;;;22.98;nan;95176.59;2074642;28;974;-70
2022/04/28 02:14:18;;;;;;;;;;;;;;;22.99;nan;95172.03;2074240;28;1328;-70
2022/04/28 02:15:20;;;;;;;;;;;;;;;23.00;nan;95176.38;2066509;28;1073;-70
2022/04/28 02:16:21;;;;;;;;;;;;;;;23.02;nan;95171.59;2065950;28;1483;-70
2022/04/28 02:17:25;;;;;;;;;;;;;;;23.02;nan;95164.41;2057501;28;1533;-70
2022/04/28 02:18:27;;;;;;;;;;;;;;;23.03;nan;95181.28;2059743;28;990;-70
2022/04/28 02:19:29;;;;;;;;;;;;;;;23.03;nan;95178.63;2058730;28;1131;-70
2022/04/28 02:20:31;;;;;;;;;;;;;;;23.02;nan;95185.84;2058894;28;1091;-69
2022/04/28 02:21:33;;;;;;;;;;;;;;;23.01;nan;95176.13;2064610;28;1507;-70
2022/04/28 02:22:36;;;;;;;;;;;;;;;23.00;nan;95179.06;2070191;28;1261;-68
2022/04/28 02:23:37;;;;;;;;;;;;;;;23.01;nan;95184.19;2070290;28;1130;-70
2022/04/28 02:24:39;;;;;;;;;;;;;;;23.00;nan;95181.75;2065933;28;1030;-63
2022/04/28 02:25:41;;;;;;;;;;;;;;;22.96;nan;95184.06;2066424;28;1094;-64
2022/04/28 02:26:42;;;;;;;;;;;;;;;22.95;nan;95177.03;2066987;28;1902;-64
2022/04/28 02:27:44;;;;;;;;;;;;;;;22.92;nan;95177.47;2062221;28;1695;-64
2022/04/28 02:28:45;;;;;;;;;;;;;;;22.92;nan;95177.47;2059208;28;1022;-64
2022/04/28 02:29:47;;;;;;;;;;;;;;;22.90;nan;95176.88;2059007;28;1303;-63
2022/04/28 02:30:48;;;;;;;;;;;;;;;22.88;nan;95181.66;2056453;28;1460;-60
2022/04/28 02:31:50;;;;;;;;;;;;;;;22.86;nan;95182.91;2065018;28;1567;-60
2022/04/28 02:33:10;;;;;;;;;;;;;;;22.85;nan;95186.63;2066199;28;1097;-63
2022/04/28 02:34:12;;;;;;;;;;;;;;;22.81;nan;95180.91;2053918;28;1704;-60
2022/04/28 02:35:14;;;;;;;;;;;;;;;22.83;nan;95178.00;2054025;28;1579;-62
2022/04/28 02:36:16;;;;;;;;;;;;;;;22.82;nan;95179.84;2059811;28;1704;-61
2022/04/28 02:37:18;;;;;;;;;;;;;;;22.82;nan;95185.19;2065791;28;1614;-61
2022/04/28 02:38:20;;;;;;;;;;;;;;;22.80;nan;95184.63;2066037;28;1026;-61
2022/04/28 02:39:21;;;;;;;;;;;;;;;22.81;nan;95185.44;2065487;28;1653;-61
2022/04/28 02:40:23;;;;;;;;;;;;;;;22.83;nan;95189.53;2066728;28;1089;-61
2022/04/28 02:41:25;;;;;;;;;;;;;;;22.85;nan;95184.78;2064693;28;1679;-65
2022/04/28 02:42:26;;;;;;;;;;;;;;;22.86;nan;95186.41;2065798;28;1714;-62
2022/04/28 02:43:28;;;;;;;;;;;;;;;22.83;nan;95184.19;2066722;28;1096;-62
2022/04/28 02:44:30;;;;;;;;;;;;;;;22.81;nan;95188.13;2066843;28;1112;-63
2022/04/28 02:45:31;;;;;;;;;;;;;;;22.79;nan;95189.16;2061751;28;1077;-64
2022/04/28 02:46:33;;;;;;;;;;;;;;;22.79;nan;95191.84;2061312;28;1930;-62
2022/04/28 02:47:35;;;;;;;;;;;;;;;22.80;nan;95192.66;2050824;29;1017;-62
2022/04/28 02:48:37;;;;;;;;;;;;;;;22.78;nan;95189.38;2049860;29;1130;-65
2022/04/28 02:49:39;;;;;;;;;;;;;;;22.78;nan;95182.16;2051430;28;1501;-62
2022/04/28 02:50:40;;;;;;;;;;;;;;;22.78;nan;95192.06;2066839;28;1080;-62
2022/04/28 02:51:42;;;;;;;;;;;;;;;22.79;nan;95191.84;2058282;28;1522;-62
2022/04/28 02:52:43;;;;;;;;;;;;;;;22.79;nan;95191.00;2060218;28;1273;-61
2022/04/28 02:53:45;;;;;;;;;;;;;;;22.78;nan;95192.06;2058428;28;1389;-61
2022/04/28 02:54:47;;;;;;;;;;;;;;;22.78;nan;95189.38;2060701;28;1729;-62
2022/04/28 02:55:49;;;;;;;;;;;;;;;22.78;nan;95195.56;2059729;28;1724;-62
2022/04/28 02:56:50;;;;;;;;;;;;;;;22.77;nan;95191.25;2056428;28;1273;-61
2022/04/28 02:57:52;;;;;;;;;;;;;;;22.77;nan;95196.59;2058172;28;1489;-62
2022/04/28 02:58:57;;;;;;;;;;;;;;;22.77;nan;95198.47;2066035;28;1362;-62
2022/04/28 02:59:58;;;;;;;;;;;;;;;22.76;nan;95194.97;2066501;28;1031;-62
2022/04/28 03:01:01;;;;;;;;;;;;;;;22.77;nan;95195.78;2065509;28;1647;-62
2022/04/28 03:02:02;;;;;;;;;;;;;;;22.77;nan;95203.81;2065481;28;1474;-63
2022/04/28 03:03:05;;;;;;;;;;;;;;;21.51;nan;95197.41;2066775;28;1064;-63
2022/04/28 03:04:06;;;;;;;;;;;;;;;20.32;nan;95193.97;2066618;28;1140;-67
2022/04/28 03:05:08;;;;;;;;;;;;;;;20.03;nan;95202.34;2066562;28;1093;-62
2022/04/28 03:11:33;;;;;;;;;;;;;;;18.64;nan;95208.72;2066376;28;1126;-63
2022/04/28 03:12:36;;;;;;;;;;;;;;;18.43;nan;95198.94;2065245;28;1518;-63
2022/04/28 03:13:38;;;;;;;;;;;;;;;18.50;nan;95205.16;2065330;28;1456;-63
2022/04/28 03:14:40;;;;;;;;;;;;;;;18.18;nan;95203.03;2066411;28;1393;-64
2022/04/28 03:15:41;;;;;;;;;;;;;;;18.21;nan;95211.47;2065260;28;1484;-63
2022/04/28 03:16:44;;;;;;;;;;;;;;;18.05;nan;95203.75;2066340;28;1010;-63
2022/04/28 03:17:45;;;;;;;;;;;;;;;18.00;nan;95208.81;2064943;28;1635;-63
2022/04/28 03:18:47;;;;;;;;;;;;;;;18.09;nan;95211.16;2065234;28;1540;-63
2022/04/28 03:19:49;;;;;;;;;;;;;;;18.08;nan;95211.34;2057869;28;1632;-62
2022/04/28 03:20:50;;;;;;;;;;;;;;;18.03;nan;95208.44;2064897;28;1437;-62
2022/04/28 03:21:52;;;;;;;;;;;;;;;17.97;nan;95214.53;2058844;28;1696;-62
2022/04/28 03:22:53;;;;;;;;;;;;;;;18.01;nan;95216.63;2064302;28;1018;-62
2022/04/28 03:23:55;;;;;;;;;;;;;;;17.91;nan;95217.94;2061106;28;1811;-62
2022/04/28 03:24:57;;;;;;;;;;;;;;;17.80;nan;95221.91;2054895;28;1651;-62
2022/04/28 03:25:58;;;;;;;;;;;;;;;17.74;nan;95220.84;2065105;28;1661;-62
2022/04/28 03:27:00;;;;;;;;;;;;;;;17.84;nan;95215.19;2063273;28;1902;-62
2022/04/28 03:28:01;;;;;;;;;;;;;;;17.76;nan;95228.63;2065140;28;1659;-62
2022/04/28 03:29:03;;;;;;;;;;;;;;;17.61;nan;95221.50;2066275;28;1089;-63
2022/04/28 03:30:06;;;;;;;;;;;;;;;17.66;nan;95228.88;2059969;28;1578;-61
2022/04/28 03:31:08;;;;;;;;;;;;;;;17.75;nan;95229.63;2053838;28;1762;-62
2022/04/28 03:32:10;;;;;;;;;;;;;;;17.69;nan;95233.00;2061243;28;1523;-61
2022/04/28 03:33:12;;;;;;;;;;;;;;;17.56;nan;95226.53;2062404;28;1485;-61
2022/04/28 03:34:14;;;;;;;;;;;;;;;17.59;nan;95236.81;2058299;28;1292;-63
2022/04/28 03:35:15;;;;;;;;;;;;;;;17.74;nan;95236.78;2057686;28;1734;-62
2022/04/28 03:37:37;;;;;;;;;;;;;;;17.80;nan;95243.19;2064169;28;1499;-62
2022/04/28 03:38:39;;;;;;;;;;;;;;;17.86;nan;95243.25;2063799;28;1552;-62
2022/04/28 03:39:41;;;;;;;;;;;;;;;17.69;nan;95243.63;2058415;28;1081;-62
2022/04/28 03:40:43;;;;;;;;;;;;;;;17.60;nan;95241.09;2058772;28;1443;-61
2022/04/28 03:41:45;;;;;;;;;;;;;;;17.35;nan;95245.09;2060150;28;1663;-63
2022/04/28 03:42:46;;;;;;;;;;;;;;;17.67;nan;95251.81;2053810;28;1686;-63
2022/04/28 03:43:48;;;;;;;;;;;;;;;17.57;nan;95249.44;2064146;28;1631;-64
2022/04/28 03:44:50;;;;;;;;;;;;;;;17.36;nan;95250.22;2065112;28;1519;-64
2022/04/28 03:45:51;;;;;;;;;;;;;;;17.49;nan;95244.22;2060158;28;1749;-63
2022/04/28 03:46:53;;;;;;;;;;;;;;;17.56;nan;95253.13;2065253;28;1091;-62
2022/04/28 03:47:56;;;;;;;;;;;;;;;17.54;nan;95247.16;2063642;28;1970;-64
2022/04/28 03:48:57;;;;;;;;;;;;;;;17.52;nan;95254.47;2062004;28;1633;-62
2022/04/28 03:49:59;;;;;;;;;;;;;;;17.80;nan;95256.47;2066330;28;1606;-67
2022/04/28 03:51:00;;;;;;;;;;;;;;;18.05;nan;95249.78;2066343;28;1030;-65
2022/04/28 03:52:02;;;;;;;;;;;;;;;17.92;nan;95251.47;2062649;28;1516;-65
2022/04/28 03:53:04;;;;;;;;;;;;;;;18.39;nan;95255.41;2058275;28;1077;-63
2022/04/28 03:54:06;;;;;;;;;;;;;;;18.72;nan;95253.00;2055217;28;1590;-64
2022/04/28 03:55:09;;;;;;;;;;;;;;;18.98;nan;95255.88;2064614;28;1445;-65
2022/04/28 03:56:10;;;;;;;;;;;;;;;19.19;nan;95251.47;2065653;28;1027;-65
2022/04/28 03:57:12;;;;;;;;;;;;;;;19.39;nan;95257.72;2061035;28;1648;-65
2022/04/28 03:58:13;;;;;;;;;;;;;;;19.63;nan;95260.91;2058402;28;1014;-64
2022/04/28 03:59:15;;;;;;;;;;;;;;;19.77;nan;95259.94;2058216;28;1026;-65
2022/04/28 04:00:17;;;;;;;;;;;;;;;20.02;nan;95267.41;2062134;28;1632;-66
2022/04/28 04:01:19;;;;;;;;;;;;;;;20.20;nan;95259.63;2057912;28;1713;-63
2022/04/28 04:02:21;;;;;;;;;;;;;;;20.28;nan;95258.63;2058090;28;1535;-64
2022/04/28 04:03:22;;;;;;;;;;;;;;;20.28;nan;95259.44;2065246;28;1121;-65
2022/04/28 04:04:24;;;;;;;;;;;;;;;20.25;nan;95254.50;2061334;28;1598;-65
2022/04/28 04:05:26;;;;;;;;;;;;;;;20.10;nan;95262.69;2046305;28;1585;-64
2022/04/28 04:06:27;;;;;;;;;;;;;;;19.20;nan;95264.56;2062335;28;1685;-65
2022/04/28 04:07:29;;;;;;;;;;;;;;;18.71;nan;95248.72;2054916;28;1974;-65
2022/04/28 04:08:31;;;;;;;;;;;;;;;18.62;nan;95263.97;2058932;28;1745;-65
2022/04/28 04:09:33;;;;;;;;;;;;;;;18.50;nan;95263.69;2066202;28;1096;-67
2022/04/28 04:10:35;;;;;;;;;;;;;;;18.40;nan;95262.34;2057796;28;1700;-65
2022/04/28 04:11:36;;;;;;;;;;;;;;;18.32;nan;95260.66;2058981;28;1735;-66
2022/04/28 04:12:38;;;;;;;;;;;;;;;18.23;nan;95259.13;2062103;28;1465;-64
2022/04/28 04:13:40;;;;;;;;;;;;;;;18.17;nan;95265.22;2064546;28;1703;-66
2022/04/28 04:14:41;;;;;;;;;;;;;;;18.02;nan;95268.78;2064760;28;1486;-68
2022/04/28 04:15:43;;;;;;;;;;;;;;;18.58;nan;95261.88;2063771;28;1708;-66
2022/04/28 04:16:45;;;;;;;;;;;;;;;19.12;nan;95264.78;2049140;28;1531;-68
2022/04/28 04:17:46;;;;;;;;;;;;;;;19.06;nan;95264.72;2070475;28;1509;-65
2022/04/28 04:18:48;;;;;;;;;;;;;;;18.85;nan;95263.75;2069827;28;1641;-65
2022/04/28 04:19:49;;;;;;;;;;;;;;;18.94;nan;95264.44;2057669;28;1743;-65
2022/04/28 04:20:51;;;;;;;;;;;;;;;19.15;nan;95261.72;2055902;28;1686;-65
2022/04/28 04:21:53;;;;;;;;;;;;;;;19.33;nan;95263.84;2063115;28;1487;-66
2022/04/28 04:22:54;;;;;;;;;;;;;;;19.44;nan;95260.63;2064279;28;1601;-66
2022/04/28 04:23:57;;;;;;;;;;;;;;;19.53;nan;95263.16;2073424;28;1163;-66
2022/04/28 04:24:58;;;;;;;;;;;;;;;19.58;nan;95266.03;2073196;28;1006;-65
2022/04/28 04:26:01;;;;;;;;;;;;;;;19.62;nan;95264.59;2065918;28;1104;-66
2022/04/28 04:27:03;;;;;;;;;;;;;;;19.68;nan;95261.13;2058484;28;1930;-65
2022/04/28 04:28:05;;;;;;;;;;;;;;;19.73;nan;95261.38;2040872;28;1902;-66
2022/04/28 04:29:06;;;;;;;;;;;;;;;19.77;nan;95262.59;2049015;29;1085;-66
2022/04/28 04:32:49;;;;;;;;;;;;;;;19.88;nan;95271.88;2050121;29;1022;-66
2022/04/28 04:33:50;;;;;;;;;;;;;;;19.89;nan;95271.69;2050137;28;1086;-65
2022/04/28 04:34:53;;;;;;;;;;;;;;;19.94;nan;95276.41;2050378;28;1113;-66
2022/04/28 04:35:54;;;;;;;;;;;;;;;20.00;nan;95286.25;2050332;28;999;-66
2022/04/28 04:36:56;;;;;;;;;;;;;;;20.01;nan;95281.78;2050361;28;1031;-66
2022/04/28 04:37:57;;;;;;;;;;;;;;;20.02;nan;95278.06;2050519;28;1012;-66
2022/04/28 04:38:59;;;;;;;;;;;;;;;20.03;nan;95280.53;2047035;28;1126;-65
2022/04/28 04:40:00;;;;;;;;;;;;;;;20.01;nan;95277.25;2047092;29;1088;-66
2022/04/28 04:41:02;;;;;;;;;;;;;;;19.99;nan;95284.63;2051858;29;1014;-67
2022/04/28 04:42:04;;;;;;;;;;;;;;;20.00;nan;95280.09;2051652;28;995;-67
2022/04/28 04:43:13;;;;;;;;;;;;;;;20.01;nan;95277.25;2051648;28;1274;-66
2022/04/28 04:44:14;;;;;;;;;;;;;;;20.01;nan;95273.75;2051813;28;1172;-65
2022/04/28 04:45:16;;;;;;;;;;;;;;;20.03;nan;95280.53;2051625;29;1149;-65
2022/04/28 04:46:18;;;;;;;;;;;;;;;20.03;nan;95282.38;2051778;29;1082;-67
2022/04/28 04:47:19;;;;;;;;;;;;;;;20.06;nan;95280.13;2051716;28;1003;-65
2022/04/28 04:48:22;;;;;;;;;;;;;;;20.10;nan;95280.56;2051707;29;1970;-65
2022/04/28 04:49:24;;;;;;;;;;;;;;;20.11;nan;95279.50;2051600;28;1129;-66
2022/04/28 04:50:26;;;;;;;;;;;;;;;20.13;nan;95284.66;2046858;28;1140;-66
2022/04/28 04:51:27;;;;;;;;;;;;;;;20.14;nan;95287.13;2054012;28;1161;-66
2022/04/28 04:52:29;;;;;;;;;;;;;;;20.15;nan;95286.09;2058976;28;1018;-66
2022/04/28 04:53:30;;;;;;;;;;;;;;;20.15;nan;95279.97;2051556;29;1018;-65
2022/04/28 04:54:32;;;;;;;;;;;;;;;20.16;nan;95285.06;2051542;28;1160;-65
2022/04/28 04:55:36;;;;;;;;;;;;;;;20.16;nan;95282.41;2051506;29;956;-66
2022/04/28 04:56:38;;;;;;;;;;;;;;;20.17;nan;95280.56;2051711;28;976;-66
2022/04/28 04:57:40;;;;;;;;;;;;;;;20.16;nan;95285.06;2051727;28;1110;-65
2022/04/28 04:58:42;;;;;;;;;;;;;;;20.21;nan;95287.16;2051843;28;1101;-67
2022/04/28 04:59:43;;;;;;;;;;;;;;;20.24;nan;95292.06;2051506;29;993;-66
2022/04/28 05:00:45;;;;;;;;;;;;;;;20.23;nan;95291.25;2051488;29;1086;-66
2022/04/28 05:01:46;;;;;;;;;;;;;;;20.22;nan;95288.78;2046733;28;1044;-66
2022/04/28 05:02:48;;;;;;;;;;;;;;;20.22;nan;95289.59;2046762;29;1804;-66
2022/04/28 05:03:50;;;;;;;;;;;;;;;20.22;nan;95300.25;2051640;29;742;-64
2022/04/28 05:04:51;;;;;;;;;;;;;;;20.23;nan;95299.25;2051434;29;1095;-65
2022/04/28 05:05:53;;;;;;;;;;;;;;;20.23;nan;95291.25;2051602;29;1038;-66
2022/04/28 05:06:55;;;;;;;;;;;;;;;20.21;nan;95298.63;2051737;29;1079;-66
2022/04/28 05:07:57;;;;;;;;;;;;;;;20.23;nan;95303.75;2051517;28;1903;-66
2022/04/28 05:08:58;;;;;;;;;;;;;;;20.23;nan;95299.25;2051547;28;1089;-66
2022/04/28 05:10:00;;;;;;;;;;;;;;;20.25;nan;95302.53;2051570;28;1080;-68
2022/04/28 05:11:02;;;;;;;;;;;;;;;20.27;nan;95303.16;2051605;28;917;-66
2022/04/28 05:12:04;;;;;;;;;;;;;;;20.27;nan;95305.81;2051483;29;1007;-67
2022/04/28 05:13:11;;;;;;;;;;;;;;;20.27;nan;95310.34;2046762;28;1353;-66
2022/04/28 05:14:12;;;;;;;;;;;;;;;20.25;nan;95307.88;2046720;28;1234;-66
2022/04/28 05:15:14;;;;;;;;;;;;;;;20.26;nan;95306.00;2067106;28;1033;-65
2022/04/28 05:16:16;;;;;;;;;;;;;;;20.26;nan;95312.19;2066663;28;1026;-66
2022/04/28 05:17:17;;;;;;;;;;;;;;;20.24;nan;95306.22;2051671;29;1040;-66
2022/04/28 05:18:19;;;;;;;;;;;;;;;20.23;nan;95312.59;2051563;29;1055;-65
2022/04/28 05:19:21;;;;;;;;;;;;;;;20.23;nan;95309.94;2051508;28;1221;-65
2022/04/28 05:20:22;;;;;;;;;;;;;;;20.29;nan;95314.47;2051519;28;1106;-66
2022/04/28 05:21:24;;;;;;;;;;;;;;;20.34;nan;95313.84;2051444;28;1113;-66
2022/04/28 05:22:27;;;;;;;;;;;;;;;20.33;nan;95317.53;2051530;29;1106;-66
2022/04/28 05:23:28;;;;;;;;;;;;;;;20.32;nan;95319.38;2050893;28;1026;-66
2022/04/28 05:24:30;;;;;;;;;;;;;;;20.32;nan;95315.91;2046429;29;1050;-64
2022/04/28 05:25:32;;;;;;;;;;;;;;;20.29;nan;95316.31;2046927;29;1081;-65
2022/04/28 05:26:33;;;;;;;;;;;;;;;20.28;nan;95315.47;2051358;29;1113;-65
2022/04/28 05:27:35;;;;;;;;;;;;;;;20.28;nan;95320.81;2051658;28;1112;-66
2022/04/28 05:28:36;;;;;;;;;;;;;;;20.33;nan;95318.34;2051375;29;1988;-65
2022/04/28 05:29:38;;;;;;;;;;;;;;;20.32;nan;95322.06;2051414;29;1126;-66
2022/04/28 05:30:40;;;;;;;;;;;;;;;20.34;nan;95320.00;2050719;29;1014;-67
2022/04/28 05:31:41;;;;;;;;;;;;;;;20.32;nan;95321.25;2050815;29;1184;-65
2022/04/28 05:32:43;;;;;;;;;;;;;;;20.29;nan;95321.66;2051443;29;1012;-65
2022/04/28 05:33:45;;;;;;;;;;;;;;;20.28;nan;95328.81;2067005;28;1057;-65
2022/04/28 05:34:47;;;;;;;;;;;;;;;20.26;nan;95319.34;2066438;28;1021;-66
2022/04/28 05:35:48;;;;;;;;;;;;;;;20.25;nan;95323.88;2046729;29;1388;-65
2022/04/28 05:36:50;;;;;;;;;;;;;;;20.23;nan;95319.75;2046705;29;1099;-66
2022/04/28 05:37:54;;;;;;;;;;;;;;;20.21;nan;95324.50;2051446;28;1054;-65
2022/04/28 05:39:02;;;;;;;;;;;;;;;20.21;nan;95325.31;2050782;29;1036;-66
2022/04/28 05:40:05;;;;;;;;;;;;;;;20.22;nan;95321.63;2050839;29;1007;-66
2022/04/28 05:41:07;;;;;;;;;;;;;;;20.22;nan;95323.47;2051339;28;1019;-67
2022/04/28 05:42:10;;;;;;;;;;;;;;;20.21;nan;95330.66;2051321;28;1081;-65
2022/04/28 05:45:54;;;;;;;;;;;;;;;20.27;nan;95326.34;2051289;29;1538;-66
2022/04/28 05:46:56;;;;;;;;;;;;;;;20.27;nan;95329.03;2046655;28;1167;-66
2022/04/28 05:47:58;;;;;;;;;;;;;;;20.28;nan;95336.00;2046786;29;1191;-66
2022/04/28 05:49:00;;;;;;;;;;;;;;;20.31;nan;95325.72;2051370;28;1973;-67
2022/04/28 05:50:01;;;;;;;;;;;;;;;20.27;nan;95327.16;2050385;29;1169;-66
2022/04/28 05:51:03;;;;;;;;;;;;;;;20.31;nan;95331.06;2051559;29;1006;-67
2022/04/28 05:52:05;;;;;;;;;;;;;;;20.33;nan;95333.53;2051218;29;1102;-65
2022/04/28 05:53:06;;;;;;;;;;;;;;;20.35;nan;95342.19;2051774;28;1015;-66
2022/04/28 05:54:08;;;;;;;;;;;;;;;20.34;nan;95341.38;2051380;29;1231;-66
2022/04/28 05:55:10;;;;;;;;;;;;;;;20.35;nan;95342.19;2051354;29;1023;-66
2022/04/28 05:56:11;;;;;;;;;;;;;;;20.31;nan;95341.75;2051462;29;995;-65